createdAt,value
2023-05-05T00:01:21.669Z,99.90
2023-05-05T00:03:48.283Z,99.90
2023-05-05T00:06:14.880Z,99.90
2023-05-05T00:08:41.630Z,99.90
2023-05-05T00:11:08.438Z,99.90
2023-05-05T00:13:35.148Z,99.90
2023-05-05T00:16:01.761Z,99.90
2023-05-05T00:18:28.339Z,99.90
2023-05-05T00:20:54.912Z,99.90
2023-05-05T00:23:21.730Z,99.90
2023-05-05T00:25:48.296Z,99.90
2023-05-05T00:28:14.859Z,99.90
2023-05-05T00:30:41.552Z,99.90
2023-05-05T00:33:08.237Z,99.90
2023-05-05T00:35:35.008Z,99.90
2023-05-05T00:38:01.753Z,99.90
2023-05-05T00:40:28.506Z,99.90
2023-05-05T00:42:55.094Z,99.90
2023-05-05T00:45:21.859Z,99.90
2023-05-05T00:47:50.805Z,99.90
2023-05-05T00:50:28.905Z,99.90
2023-05-05T00:53:01.207Z,99.90
2023-05-05T00:55:29.483Z,99.90
2023-05-05T00:57:57.528Z,99.90
2023-05-05T01:00:24.457Z,99.90
2023-05-05T01:02:51.239Z,99.90
2023-05-05T01:05:19.947Z,99.90
2023-05-05T01:08:02.106Z,99.90
2023-05-05T01:10:57.289Z,99.90
2023-05-05T01:13:26.802Z,99.90
2023-05-05T01:16:11.881Z,99.90
2023-05-05T01:19:20.174Z,99.90
2023-05-05T01:22:02.070Z,99.90
2023-05-05T01:24:49.059Z,99.90
2023-05-05T01:27:54.755Z,99.90
2023-05-05T01:30:49.869Z,99.90
2023-05-05T01:33:24.384Z,99.90
2023-05-05T01:35:53.348Z,99.90
2023-05-05T01:38:26.019Z,99.90
2023-05-05T01:41:03.013Z,99.90
2023-05-05T01:43:32.049Z,99.90
2023-05-05T01:46:00.424Z,99.90
2023-05-05T01:48:27.483Z,99.90
2023-05-05T01:50:54.353Z,99.90
2023-05-05T01:53:23.894Z,99.90
2023-05-05T01:55:52.101Z,99.90
2023-05-05T01:58:21.492Z,99.90
2023-05-05T02:00:50.094Z,99.90
2023-05-05T02:03:18.558Z,99.90
2023-05-05T02:05:48.155Z,99.90
2023-05-05T02:08:19.493Z,99.90
2023-05-05T02:10:47.571Z,99.90
2023-05-05T02:13:14.659Z,99.90
2023-05-05T02:15:43.096Z,99.90
2023-05-05T02:18:10.800Z,99.90
2023-05-05T02:20:39.501Z,99.90
2023-05-05T02:23:07.104Z,99.90
2023-05-05T02:25:43.588Z,99.90
2023-05-05T02:28:17.006Z,99.90
2023-05-05T02:30:43.927Z,99.90
2023-05-05T02:33:13.994Z,99.90
2023-05-05T02:35:41.978Z,99.90
2023-05-05T02:38:16.008Z,99.90
2023-05-05T02:40:44.665Z,99.90
2023-05-05T02:43:15.304Z,99.90
2023-05-05T02:45:42.116Z,99.90
2023-05-05T02:48:08.754Z,99.90
2023-05-05T02:50:35.523Z,99.90
2023-05-05T02:53:02.331Z,99.90
2023-05-05T02:55:48.899Z,99.90
2023-05-05T02:58:40.850Z,99.90
2023-05-05T03:01:26.618Z,99.90
2023-05-05T03:04:05.473Z,99.90
2023-05-05T03:06:40.305Z,99.90
2023-05-05T03:09:23.045Z,99.90
2023-05-05T03:12:03.609Z,99.90
2023-05-05T03:14:35.305Z,99.90
2023-05-05T03:17:02.896Z,99.90
2023-05-05T03:19:30.395Z,99.90
2023-05-05T03:21:57.272Z,99.90
2023-05-05T03:24:23.823Z,99.90
2023-05-05T03:26:50.493Z,99.90
2023-05-05T03:29:17.048Z,99.90
2023-05-05T03:31:43.669Z,99.90
2023-05-05T03:34:10.348Z,99.90
2023-05-05T03:36:36.980Z,99.90
2023-05-05T03:39:03.689Z,99.90
2023-05-05T03:41:30.486Z,99.90
2023-05-05T03:43:57.138Z,99.90
2023-05-05T03:46:23.711Z,99.90
2023-05-05T03:48:50.344Z,99.90
2023-05-05T03:51:16.964Z,99.90
2023-05-05T03:53:43.649Z,99.90
2023-05-05T03:56:10.339Z,99.90
2023-05-05T03:58:36.918Z,99.90
2023-05-05T04:01:03.532Z,99.90
2023-05-05T04:03:30.191Z,99.90
2023-05-05T04:05:56.827Z,99.90
2023-05-05T04:08:23.440Z,99.90
2023-05-05T04:10:50.031Z,99.90
2023-05-05T04:13:16.674Z,99.90
2023-05-05T04:15:46.505Z,99.90
2023-05-05T04:18:13.182Z,99.90
2023-05-05T04:20:39.792Z,99.90
2023-05-05T04:23:06.351Z,99.90
2023-05-05T04:25:32.953Z,99.90
2023-05-05T04:27:59.531Z,99.90
2023-05-05T04:30:26.150Z,99.90
2023-05-05T04:32:52.822Z,99.90
2023-05-05T04:35:19.583Z,99.90
2023-05-05T04:37:46.160Z,99.90
2023-05-05T04:40:12.986Z,99.90
2023-05-05T04:42:39.660Z,99.90
2023-05-05T04:45:06.866Z,99.90
2023-05-05T04:47:37.715Z,99.90
2023-05-05T04:50:04.669Z,99.90
2023-05-05T04:52:31.431Z,99.90
2023-05-05T04:54:58.076Z,99.90
2023-05-05T04:57:24.681Z,99.90
2023-05-05T04:59:51.260Z,99.90
2023-05-05T05:02:17.998Z,99.90
2023-05-05T05:04:44.615Z,99.90
2023-05-05T05:07:11.153Z,99.90
2023-05-05T05:09:37.750Z,99.90
2023-05-05T05:12:04.724Z,99.90
2023-05-05T05:14:39.558Z,99.90
2023-05-05T05:17:06.563Z,99.90
2023-05-05T05:19:33.136Z,99.90
2023-05-05T05:21:59.691Z,99.90
2023-05-05T05:24:26.268Z,99.90
2023-05-05T05:26:52.869Z,99.90
2023-05-05T05:29:19.504Z,99.90
2023-05-05T05:31:46.115Z,99.90
2023-05-05T05:34:12.944Z,99.90
2023-05-05T05:36:39.698Z,99.90
2023-05-05T05:39:06.237Z,99.90
2023-05-05T05:41:32.816Z,99.90
2023-05-05T05:43:59.393Z,99.90
2023-05-05T05:46:26.027Z,99.90
2023-05-05T05:48:52.701Z,99.90
2023-05-05T05:51:19.312Z,99.90
2023-05-05T05:53:45.891Z,99.90
2023-05-05T05:56:12.476Z,99.90
2023-05-05T05:58:39.071Z,99.90
2023-05-05T06:01:05.705Z,99.90
2023-05-05T06:03:32.355Z,99.90
2023-05-05T06:05:59.052Z,99.90
2023-05-05T06:08:25.663Z,99.90
2023-05-05T06:10:52.761Z,99.90
2023-05-05T06:13:19.342Z,99.90
2023-05-05T06:15:45.978Z,99.90
2023-05-05T06:18:12.734Z,99.90
2023-05-05T06:20:39.356Z,99.90
2023-05-05T06:23:06.233Z,99.90
2023-05-05T06:25:32.771Z,99.90
2023-05-05T06:27:59.403Z,99.90
2023-05-05T06:30:25.993Z,99.90
2023-05-05T06:32:52.538Z,99.90
2023-05-05T06:35:19.092Z,99.90
2023-05-05T06:37:45.645Z,99.90
2023-05-05T06:40:12.633Z,99.90
2023-05-05T06:42:39.230Z,99.90
2023-05-05T06:45:06.298Z,99.90
2023-05-05T06:47:33.120Z,99.90
2023-05-05T06:49:59.727Z,99.90
2023-05-05T06:52:26.414Z,99.90
2023-05-05T06:54:52.953Z,99.90
2023-05-05T06:57:19.485Z,99.90
2023-05-05T06:59:46.032Z,99.90
2023-05-05T07:02:12.580Z,99.90
2023-05-05T07:04:39.184Z,99.90
2023-05-05T07:07:05.761Z,99.90
2023-05-05T07:09:32.758Z,99.90
2023-05-05T07:11:59.625Z,99.90
2023-05-05T07:14:26.172Z,99.90
2023-05-05T07:16:52.834Z,99.90
2023-05-05T07:19:19.496Z,99.90
2023-05-05T07:21:46.036Z,99.90
2023-05-05T07:24:12.738Z,99.90
2023-05-05T07:26:39.332Z,99.90
2023-05-05T07:29:06.001Z,99.90
2023-05-05T07:31:32.766Z,99.90
2023-05-05T07:33:59.392Z,99.90
2023-05-05T07:36:26.047Z,99.90
2023-05-05T07:38:52.599Z,99.90
2023-05-05T07:41:19.187Z,99.90
2023-05-05T07:43:45.798Z,99.90
2023-05-05T07:46:12.488Z,99.90
2023-05-05T07:48:39.121Z,99.90
2023-05-05T07:51:05.694Z,99.90
2023-05-05T07:53:32.550Z,99.90
2023-05-05T07:56:00.650Z,99.90
2023-05-05T07:58:27.243Z,99.90
2023-05-05T08:00:53.813Z,99.90
2023-05-05T08:03:20.547Z,99.90
2023-05-05T08:05:47.236Z,99.90
2023-05-05T08:08:13.817Z,99.90
2023-05-05T08:10:40.397Z,99.90
2023-05-05T08:13:06.973Z,99.90
2023-05-05T08:15:33.640Z,99.90
2023-05-05T08:18:00.292Z,99.90
2023-05-05T08:20:29.099Z,99.90
2023-05-05T08:22:55.647Z,99.90
2023-05-05T08:25:22.272Z,99.90
2023-05-05T08:27:48.857Z,99.90
2023-05-05T08:30:15.574Z,99.90
2023-05-05T08:32:42.210Z,99.90
2023-05-05T08:35:09.385Z,99.90
2023-05-05T08:37:36.203Z,99.90
2023-05-05T08:40:02.864Z,99.90
2023-05-05T08:42:37.918Z,99.90
2023-05-05T09:04:08.873Z,99.90
2023-05-05T09:06:35.792Z,99.90
2023-05-05T09:09:02.744Z,99.90
2023-05-05T09:11:29.448Z,99.90
2023-05-05T09:13:56.084Z,99.90
2023-05-05T09:16:22.696Z,99.90
2023-05-05T09:18:49.297Z,99.90
2023-05-05T09:21:22.900Z,99.90
2023-05-05T09:24:12.529Z,99.90
2023-05-05T09:26:43.100Z,99.90
2023-05-05T09:29:09.764Z,99.90
2023-05-05T09:31:37.031Z,99.90
2023-05-05T09:34:14.452Z,99.90
2023-05-05T09:36:48.085Z,99.90
2023-05-05T09:39:19.869Z,99.90
2023-05-05T09:41:46.716Z,99.90
2023-05-05T09:44:13.981Z,99.90
2023-05-05T09:46:50.590Z,99.90
2023-05-05T09:49:21.623Z,99.90
2023-05-05T09:51:48.323Z,99.90
2023-05-05T09:54:25.377Z,99.90
2023-05-05T09:56:52.176Z,99.90
2023-05-05T09:59:19.551Z,99.90
2023-05-05T10:01:46.480Z,99.90
2023-05-05T10:04:33.374Z,99.90
2023-05-05T10:06:59.946Z,99.90
2023-05-05T10:09:27.179Z,99.90
2023-05-05T10:11:55.950Z,99.90
2023-05-05T10:14:24.069Z,99.90
2023-05-05T10:16:52.700Z,99.90
2023-05-05T10:19:21.111Z,99.90
2023-05-05T10:21:53.954Z,99.90
2023-05-05T10:24:34.920Z,99.90
2023-05-05T10:27:07.704Z,99.90
2023-05-05T10:29:45.174Z,99.90
2023-05-05T10:32:50.959Z,99.90
2023-05-05T10:35:13.141Z,99.90
2023-05-05T10:37:41.550Z,99.90
2023-05-05T10:40:10.035Z,99.90
2023-05-05T10:42:39.427Z,99.90
2023-05-05T10:45:06.868Z,99.90
2023-05-05T10:47:35.137Z,99.90
2023-05-05T10:50:26.672Z,99.90
2023-05-05T10:53:13.636Z,99.90
2023-05-05T10:55:44.548Z,99.90
2023-05-05T10:58:38.539Z,99.90
2023-05-05T11:01:10.729Z,99.90
2023-05-05T11:03:37.362Z,99.90
2023-05-05T11:06:03.961Z,99.90
2023-05-05T11:08:30.496Z,99.90
2023-05-05T11:10:57.216Z,99.90
2023-05-05T11:13:24.057Z,99.90
2023-05-05T11:15:55.168Z,99.90
2023-05-05T11:18:34.961Z,99.90
2023-05-05T11:21:01.501Z,99.90
2023-05-05T11:23:28.570Z,99.90
2023-05-05T11:25:56.740Z,99.90
2023-05-05T11:28:28.665Z,99.90
2023-05-05T11:30:55.266Z,99.90
2023-05-05T11:33:25.453Z,99.90
2023-05-05T11:35:58.724Z,99.90
2023-05-05T11:38:40.140Z,99.90
2023-05-05T11:41:32.977Z,99.90
2023-05-05T11:44:18.480Z,99.90
2023-05-05T11:46:50.966Z,99.90
2023-05-05T11:49:37.820Z,99.90
2023-05-05T11:52:11.783Z,99.90
2023-05-05T11:54:40.303Z,99.90
2023-05-05T11:57:07.151Z,99.90
2023-05-05T11:59:35.302Z,99.90
2023-05-05T12:02:02.114Z,99.90
2023-05-05T12:04:29.547Z,99.90
2023-05-05T12:06:56.883Z,99.90
2023-05-05T12:09:24.033Z,99.90
2023-05-05T12:11:54.400Z,99.90
2023-05-05T12:14:21.804Z,99.90
2023-05-05T12:17:14.473Z,99.90
2023-05-05T12:19:51.079Z,99.90
2023-05-05T12:22:22.338Z,99.90
2023-05-05T12:24:55.825Z,99.90
2023-05-05T12:27:22.832Z,99.90
2023-05-05T12:29:49.935Z,99.90
2023-05-05T12:32:27.356Z,99.90
2023-05-05T12:34:55.482Z,99.90
2023-05-05T12:37:26.375Z,99.90
2023-05-05T12:39:53.435Z,99.90
2023-05-05T12:42:20.405Z,99.90
2023-05-05T12:44:47.898Z,99.90
2023-05-05T12:47:15.215Z,99.90
2023-05-05T12:49:49.481Z,99.90
2023-05-05T12:52:16.327Z,99.90
2023-05-05T12:54:56.168Z,99.60
2023-05-05T12:57:22.976Z,99.90
2023-05-05T12:59:49.821Z,99.90
2023-05-05T13:02:17.040Z,99.90
2023-05-05T13:04:51.960Z,99.90
2023-05-05T13:07:20.822Z,99.50
2023-05-05T13:09:48.957Z,98.80
2023-05-05T13:12:19.340Z,99.90
2023-05-05T13:14:46.497Z,99.90
2023-05-05T13:17:14.067Z,99.90
2023-05-05T13:19:40.879Z,98.10
2023-05-05T13:22:08.543Z,99.80
2023-05-05T13:24:49.770Z,98.70
2023-05-05T13:27:19.279Z,98.60
2023-05-05T13:29:45.834Z,97.10
2023-05-05T13:32:12.412Z,98.20
2023-05-05T13:34:39.095Z,96.90
2023-05-05T13:37:06.160Z,98.60
2023-05-05T13:39:32.727Z,99.10
2023-05-05T13:41:59.304Z,97.60
2023-05-05T13:44:25.970Z,97.60
2023-05-05T13:46:52.609Z,97.70
2023-05-05T13:49:19.231Z,99.80
2023-05-05T13:51:45.841Z,98.20
2023-05-05T13:54:12.458Z,97.20
2023-05-05T13:56:39.050Z,98.00
2023-05-05T13:59:05.649Z,97.40
2023-05-05T14:01:32.317Z,99.90
2023-05-05T14:03:59.037Z,99.90
2023-05-05T14:06:25.940Z,99.90
2023-05-05T14:08:52.634Z,99.90
2023-05-05T14:11:19.628Z,99.90
2023-05-05T14:13:46.582Z,99.90
2023-05-05T14:16:13.551Z,99.90
2023-05-05T14:18:40.270Z,99.90
2023-05-05T14:21:06.874Z,99.90
2023-05-05T14:23:33.435Z,99.90
2023-05-05T14:26:00.291Z,99.90
2023-05-05T14:28:26.873Z,99.90
2023-05-05T14:30:53.487Z,99.90
2023-05-05T14:33:20.050Z,99.90
2023-05-05T14:35:46.660Z,99.90
2023-05-05T14:38:13.259Z,99.90
2023-05-05T14:40:39.931Z,99.00
2023-05-05T14:43:06.470Z,99.10
2023-05-05T14:45:33.197Z,99.00
2023-05-05T14:47:59.826Z,99.10
2023-05-05T14:50:26.450Z,99.50
2023-05-05T14:52:53.000Z,99.90
2023-05-05T14:55:19.725Z,99.90
2023-05-05T14:57:46.295Z,99.90
2023-05-05T15:00:13.307Z,99.90
2023-05-05T15:02:39.930Z,99.90
2023-05-05T15:05:07.397Z,99.90
2023-05-05T15:07:34.280Z,99.90
2023-05-05T15:10:00.885Z,99.90
2023-05-05T15:12:27.455Z,99.90
2023-05-05T15:14:54.007Z,99.90
2023-05-05T15:17:20.757Z,99.70
2023-05-05T15:19:47.320Z,99.30
2023-05-05T15:22:13.896Z,99.90
2023-05-05T15:24:40.497Z,99.90
2023-05-05T15:27:07.055Z,99.50
2023-05-05T15:29:33.613Z,99.90
2023-05-05T15:32:00.362Z,99.90
2023-05-05T15:34:27.059Z,99.90
2023-05-05T15:36:53.692Z,99.90
2023-05-05T15:39:20.297Z,99.90
2023-05-05T15:41:46.853Z,99.90
2023-05-05T15:44:13.435Z,98.90
2023-05-05T15:46:40.064Z,99.90
2023-05-05T15:49:06.847Z,99.90
2023-05-05T15:51:33.417Z,99.90
2023-05-05T15:53:59.970Z,99.90
2023-05-05T15:56:26.520Z,99.80
2023-05-05T15:58:53.430Z,99.80
2023-05-05T16:01:20.065Z,99.70
2023-05-05T16:03:46.764Z,99.90
2023-05-05T16:06:13.352Z,99.90
2023-05-05T16:08:39.927Z,99.90
2023-05-05T16:11:06.478Z,99.90
2023-05-05T16:13:33.036Z,99.90
2023-05-05T16:15:59.805Z,99.90
2023-05-05T16:18:26.348Z,99.90
2023-05-05T16:20:52.898Z,99.90
2023-05-05T16:23:19.494Z,99.90
2023-05-05T16:25:46.020Z,99.90
2023-05-05T16:28:12.566Z,99.90
2023-05-05T16:30:39.184Z,99.90
2023-05-05T16:33:06.034Z,99.90
2023-05-05T16:35:32.649Z,99.90
2023-05-05T16:37:59.234Z,99.90
2023-05-05T16:40:25.804Z,99.90
2023-05-05T16:42:52.340Z,99.90
2023-05-05T16:45:18.920Z,99.90
2023-05-05T16:47:45.560Z,99.90
2023-05-05T16:50:12.109Z,99.90
2023-05-05T16:52:38.913Z,99.90
2023-05-05T16:55:05.680Z,99.90
2023-05-05T16:57:32.273Z,99.90
2023-05-05T16:59:58.835Z,99.90
2023-05-05T17:02:25.399Z,99.90
2023-05-05T17:04:52.008Z,99.90
2023-05-05T17:07:18.631Z,99.90
2023-05-05T17:09:45.216Z,99.90
2023-05-05T17:12:11.776Z,99.90
2023-05-05T17:14:38.426Z,99.90
2023-05-05T17:17:05.241Z,99.90
2023-05-05T17:19:32.003Z,99.90
2023-05-05T17:21:58.585Z,99.90
2023-05-05T17:24:25.445Z,99.90
2023-05-05T17:26:52.046Z,99.90
2023-05-05T17:29:18.805Z,99.90
2023-05-05T17:31:46.204Z,99.90
2023-05-05T17:34:12.814Z,99.90
2023-05-05T17:36:39.383Z,99.90
2023-05-05T17:39:06.316Z,99.90
2023-05-05T17:41:32.929Z,99.90
2023-05-05T17:43:59.589Z,99.90
2023-05-05T17:46:26.343Z,99.90
2023-05-05T17:48:53.483Z,99.90
2023-05-05T17:51:20.142Z,99.90
2023-05-05T17:53:46.698Z,99.90
2023-05-05T17:56:13.255Z,99.90
2023-05-05T17:58:39.853Z,99.90
2023-05-05T18:01:06.472Z,99.90
2023-05-05T18:03:33.266Z,99.90
2023-05-05T18:05:59.909Z,99.90
2023-05-05T18:08:26.486Z,99.90
2023-05-05T18:10:53.974Z,99.90
2023-05-05T18:13:20.568Z,99.90
2023-05-05T18:15:47.181Z,99.90
2023-05-05T18:18:13.775Z,99.90
2023-05-05T18:20:40.323Z,99.90
2023-05-05T18:23:06.890Z,99.90
2023-05-05T18:25:33.415Z,99.90
2023-05-05T18:27:59.995Z,99.90
2023-05-05T18:30:26.532Z,99.90
2023-05-05T18:32:53.188Z,99.90
2023-05-05T18:35:19.796Z,99.90
2023-05-05T18:37:46.385Z,99.90
2023-05-05T18:40:13.166Z,99.90
2023-05-05T18:42:39.776Z,99.90
2023-05-05T18:45:07.243Z,99.90
2023-05-05T18:47:33.995Z,99.90
2023-05-05T18:50:00.604Z,99.90
2023-05-05T18:52:27.184Z,99.90
2023-05-05T18:54:53.740Z,99.90
2023-05-05T18:57:20.895Z,99.90
2023-05-05T18:59:47.489Z,99.90
2023-05-05T19:02:14.059Z,99.90
2023-05-05T19:04:41.097Z,99.90
2023-05-05T19:07:07.713Z,99.90
2023-05-05T19:09:34.389Z,99.90
2023-05-05T19:12:00.959Z,99.90
2023-05-05T19:14:27.547Z,99.90
2023-05-05T19:16:54.307Z,99.90
2023-05-05T19:19:21.413Z,99.90
2023-05-05T19:21:48.300Z,99.90
2023-05-05T19:24:14.874Z,99.90
2023-05-05T19:26:41.532Z,99.90
2023-05-05T19:29:08.120Z,99.90
2023-05-05T19:31:34.703Z,99.90
2023-05-05T19:34:03.270Z,99.90
2023-05-05T19:36:31.174Z,99.90
2023-05-05T19:39:02.532Z,99.90
2023-05-05T19:41:29.702Z,99.90
2023-05-05T19:43:56.899Z,99.90
2023-05-05T19:46:23.976Z,99.90
2023-05-05T19:48:50.583Z,99.90
2023-05-05T19:51:17.186Z,99.90
2023-05-05T19:53:43.792Z,99.90
2023-05-05T19:56:10.422Z,99.90
2023-05-05T19:58:59.907Z,99.90
2023-05-05T20:01:27.939Z,99.90
2023-05-05T20:03:56.231Z,99.90
2023-05-05T20:06:23.075Z,99.90
2023-05-05T20:08:49.731Z,99.90
2023-05-05T20:11:16.978Z,99.90
2023-05-05T20:13:43.726Z,99.90
2023-05-05T20:16:10.982Z,99.90
2023-05-05T20:18:37.548Z,99.90
2023-05-05T20:21:04.324Z,99.90
2023-05-05T20:23:31.003Z,99.90
2023-05-05T20:25:57.697Z,99.90
2023-05-05T20:28:24.326Z,99.90
2023-05-05T20:30:50.943Z,99.90
2023-05-05T20:33:17.517Z,99.90
2023-05-05T20:35:44.128Z,99.90
2023-05-05T20:38:10.697Z,99.90
2023-05-05T20:40:37.259Z,99.90
2023-05-05T20:43:03.809Z,99.90
2023-05-05T20:45:30.367Z,99.90
2023-05-05T20:47:57.012Z,99.90
2023-05-05T20:50:23.773Z,99.90
2023-05-05T20:52:50.371Z,99.90
2023-05-05T20:55:16.955Z,99.90
2023-05-05T20:57:43.539Z,99.90
2023-05-05T21:00:10.609Z,99.90
2023-05-05T21:02:37.671Z,99.90
2023-05-05T21:05:04.423Z,99.90
2023-05-05T21:07:34.117Z,99.90
2023-05-05T21:10:04.885Z,99.90
2023-05-05T21:12:33.767Z,99.90
2023-05-05T21:15:00.613Z,99.90
2023-05-05T21:17:27.896Z,99.90
2023-05-05T21:19:55.020Z,99.90
2023-05-05T21:22:22.191Z,99.90
2023-05-05T21:24:49.079Z,99.90
2023-05-05T21:27:15.710Z,99.90
2023-05-05T21:29:42.313Z,99.90
2023-05-05T21:32:10.156Z,99.90
2023-05-05T21:34:37.760Z,99.90
2023-05-05T21:37:06.257Z,99.90
2023-05-05T21:39:32.865Z,99.90
2023-05-05T21:42:00.034Z,99.90
2023-05-05T21:44:26.613Z,99.90
2023-05-05T21:46:53.483Z,99.90
2023-05-05T21:49:20.052Z,99.90
2023-05-05T21:51:46.618Z,99.90
2023-05-05T21:54:13.288Z,99.90
2023-05-05T21:56:39.865Z,99.90
2023-05-05T21:59:06.681Z,99.90
2023-05-05T22:01:33.328Z,99.90
2023-05-05T22:04:00.014Z,99.90
2023-05-05T22:06:26.644Z,99.90
2023-05-05T22:08:53.193Z,99.90
2023-05-05T22:11:19.728Z,99.90
2023-05-05T22:13:46.819Z,99.90
2023-05-05T22:16:15.897Z,99.90
2023-05-05T22:18:42.436Z,99.90
2023-05-05T22:21:09.104Z,99.90
2023-05-05T22:23:35.680Z,99.90
2023-05-05T22:26:02.262Z,99.90
2023-05-05T22:28:28.855Z,99.90
2023-05-05T22:30:55.427Z,99.90
2023-05-05T22:33:21.999Z,99.90
2023-05-05T22:35:48.598Z,99.90
2023-05-05T22:38:15.168Z,99.90
2023-05-05T22:40:41.796Z,99.90
2023-05-05T22:43:08.375Z,99.90
2023-05-05T22:45:34.962Z,99.90
2023-05-05T22:48:01.737Z,99.90
2023-05-05T22:50:28.385Z,99.90
2023-05-05T22:52:54.973Z,99.90
2023-05-05T22:55:21.643Z,99.90
2023-05-05T22:57:48.291Z,99.90
2023-05-05T23:00:14.961Z,99.90
2023-05-05T23:02:41.645Z,99.90
2023-05-05T23:05:08.840Z,99.90
2023-05-05T23:07:35.582Z,99.90
2023-05-05T23:10:02.466Z,99.90
2023-05-05T23:12:29.113Z,99.90
2023-05-05T23:14:55.718Z,99.90
2023-05-05T23:17:22.337Z,99.90
2023-05-05T23:19:49.456Z,99.90
2023-05-05T23:22:16.133Z,99.90
2023-05-05T23:24:42.688Z,99.90
2023-05-05T23:27:09.559Z,99.90
2023-05-05T23:29:36.177Z,99.90
2023-05-05T23:32:02.759Z,99.90
2023-05-05T23:34:29.344Z,99.90
2023-05-05T23:36:55.942Z,99.90
2023-05-05T23:39:22.495Z,99.90
2023-05-05T23:41:49.044Z,99.90
2023-05-05T23:44:15.573Z,99.90
2023-05-05T23:46:42.251Z,99.90
2023-05-05T23:49:08.868Z,99.90
2023-05-05T23:51:35.438Z,99.90
2023-05-05T23:54:02.042Z,99.90
2023-05-05T23:56:28.710Z,99.90
2023-05-05T23:58:55.280Z,99.90
